Impacts TAF Board
For situational awareness. Not to be used for flight planning purposes.
IDs:

KMDW - Chicago/Midway Intl, IL, US

Issued at 0520 UTC 23 Oct 2018
Updated at 0657 UTC 23 Oct 2018
Potential Impact None Slight Moderate High
Time0653Z 23/07Z 23/08Z 23/09Z 23/10Z 23/11Z 23/12Z 23/13Z 23/14Z 23/15Z 23/16Z 23/17Z 23/18Z 23/19Z>>
Type OBS PRVL PRVL PRVL PRVL PRVL PRVL PRVL PRVL PRVL PRVL PRVL PRVL PRVL
VIS 10 >6 >6 >6 >6 >6 >6 >6 >6 >6 >6 >6 >6 >6
CIG -- -- -- -- -- -- -- -- -- -- -- -- -- --
Cover CLR SKC SKC SKC SKC SKC SKC SKC SCT SCT SCT SCT SCT SCT
FltCat VFR VFR VFR VFR VFR VFR VFR VFR VFR VFR VFR VFR VFR VFR
WX -- -- -- -- -- -- -- -- -- -- -- -- -- --
WDir 290 310 310 310 310 310 310 310 340 340 340 340 340 340
WSpd 6 10 10 10 10 10 10 10 12 12 12 12 12 12
WGst -- -- -- -- -- -- -- -- -- -- -- -- -- --
Raw TAF
KMDW 230520Z 2306/2412 31010KT P6SM SKC
  FM231400 34012KT P6SM SCT040
  FM232100 02009KT P6SM SCT040
  FM240200 36004KT P6SM FEW040


Raw METAR
KMDW 230653Z 29006KT 10SM CLR 08/M01 A3011 RMK AO2 SLP195 T00831006
KMDW 230553Z 28005KT 10SM CLR 08/00 A3010 RMK AO2 SLP193 T00830000 10139 20083 401720033 51015
KMDW 230453Z 28007KT 10SM CLR 11/01 A3008 RMK AO2 SLP188 T01060006
KMDW 230353Z 28009KT 10SM CLR 12/01 A3007 RMK AO2 SLP185 T01170011

METAR Board
Radar Display
Forecast Discussion
For situational awareness. Not to be used for flight planning purposes.